Time;durP1;ratioP1;P1;durP2;ratioP2;P2;SDS_P1;SDS_P2;PMS_P1;PMS_P2;Temp;Humidity;BMP_temperature;BMP_pressure;BME280_temperature;BME280_humidity;BME280_pressure;Samples;Min_cycle;Max_cycle;Signal;HPM_P1;HPM_P2
2022/11/09 00:02:13;;;;;;;;;;;15.60;99.90;;;;;;5095806;28;20399;-79
2022/11/09 00:04:39;;;;;;;;;;;15.60;99.90;;;;;;5095654;28;19998;-79
2022/11/09 00:07:04;;;;;;;;;;;15.70;99.90;;;;;;5095275;28;19912;-79
2022/11/09 00:09:30;;;;;;;;;;;15.70;99.90;;;;;;5095101;28;20450;-79
2022/11/09 00:11:55;;;;;;;;;;;15.60;99.90;;;;;;5095679;28;19908;-79
2022/11/09 00:14:21;;;;;;;;;;;15.60;99.90;;;;;;5095208;28;20003;-80
2022/11/09 00:16:46;;;;;;;;;;;15.60;99.90;;;;;;5095186;28;19934;-79
2022/11/09 00:19:12;;;;;;;;;;;15.60;99.90;;;;;;5095333;28;19908;-79
2022/11/09 00:21:38;;;;;;;;;;;15.60;99.90;;;;;;5095208;28;19912;-79
2022/11/09 00:24:04;;;;;;;;;;;15.70;99.90;;;;;;5095644;28;19927;-79
2022/11/09 00:26:29;;;;;;;;;;;15.70;99.90;;;;;;5095017;28;20477;-79
2022/11/09 00:28:55;;;;;;;;;;;15.60;99.90;;;;;;5095614;28;20002;-80
2022/11/09 00:31:21;;;;;;;;;;;15.60;99.90;;;;;;5095733;28;20279;-79
2022/11/09 00:33:50;;;;;;;;;;;15.60;99.90;;;;;;5095739;28;19908;-79
2022/11/09 00:36:15;;;;;;;;;;;15.60;99.90;;;;;;5094921;28;19923;-79
2022/11/09 00:38:41;;;;;;;;;;;15.50;99.90;;;;;;5093925;28;19908;-79
2022/11/09 00:41:08;;;;;;;;;;;15.50;99.90;;;;;;5094212;28;19919;-80
2022/11/09 00:43:34;;;;;;;;;;;15.50;99.90;;;;;;5096093;28;19947;-79
2022/11/09 00:46:00;;;;;;;;;;;15.50;99.90;;;;;;5095139;28;20000;-80
2022/11/09 00:48:25;;;;;;;;;;;15.50;99.90;;;;;;5094968;28;19908;-80
2022/11/09 00:50:51;;;;;;;;;;;15.50;99.90;;;;;;5094846;28;19940;-79
2022/11/09 00:53:17;;;;;;;;;;;15.40;99.90;;;;;;5095199;28;20344;-79
2022/11/09 00:55:42;;;;;;;;;;;15.40;99.90;;;;;;5093369;28;19951;-79
2022/11/09 00:58:08;;;;;;;;;;;15.40;99.90;;;;;;5093616;28;20002;-80
2022/11/09 01:00:33;;;;;;;;;;;15.30;99.90;;;;;;5095064;28;20570;-79
2022/11/09 01:02:59;;;;;;;;;;;15.20;99.90;;;;;;5094894;28;20295;-79
2022/11/09 01:05:24;;;;;;;;;;;15.20;99.90;;;;;;5094639;28;19977;-80
2022/11/09 01:07:49;;;;;;;;;;;15.20;99.90;;;;;;5094826;28;19919;-80
2022/11/09 01:10:15;;;;;;;;;;;15.20;99.90;;;;;;5094862;28;20363;-79
2022/11/09 01:12:40;;;;;;;;;;;15.20;99.90;;;;;;5094765;28;19916;-80
2022/11/09 01:15:06;;;;;;;;;;;15.20;99.90;;;;;;5094939;28;20007;-80
2022/11/09 01:17:32;;;;;;;;;;;15.20;99.90;;;;;;5094303;28;19991;-79
2022/11/09 01:19:57;;;;;;;;;;;15.30;99.90;;;;;;5093990;28;19916;-79
2022/11/09 01:22:22;;;;;;;;;;;15.30;99.90;;;;;;5093934;28;19955;-79
2022/11/09 01:24:48;;;;;;;;;;;15.30;99.90;;;;;;5094629;28;19908;-79
2022/11/09 01:27:16;;;;;;;;;;;15.30;99.90;;;;;;5094272;28;19922;-79
2022/11/09 01:29:41;;;;;;;;;;;15.30;99.90;;;;;;5094648;28;20286;-79
2022/11/09 01:32:07;;;;;;;;;;;15.30;99.90;;;;;;5094702;28;19908;-80
2022/11/09 01:34:32;;;;;;;;;;;15.20;99.90;;;;;;5094471;28;20389;-80
2022/11/09 01:36:58;;;;;;;;;;;15.20;99.90;;;;;;5093046;28;19920;-79
2022/11/09 01:39:23;;;;;;;;;;;15.20;99.90;;;;;;5094364;28;19916;-79
2022/11/09 01:41:49;;;;;;;;;;;15.20;99.90;;;;;;5094768;28;19991;-79
2022/11/09 01:44:16;;;;;;;;;;;15.20;99.90;;;;;;5094004;28;19908;-79
2022/11/09 01:46:41;;;;;;;;;;;15.10;99.90;;;;;;5092135;28;19912;-80
2022/11/09 01:49:13;;;;;;;;;;;15.10;99.90;;;;;;5094293;28;19915;-80
2022/11/09 01:51:41;;;;;;;;;;;15.10;99.90;;;;;;5094220;28;19908;-80
2022/11/09 01:54:11;;;;;;;;;;;15.10;99.90;;;;;;5093717;28;19966;-80
2022/11/09 01:56:37;;;;;;;;;;;15.10;99.90;;;;;;5093483;28;20334;-80
2022/11/09 01:59:04;;;;;;;;;;;15.00;99.90;;;;;;5093804;28;19915;-79
2022/11/09 02:01:30;;;;;;;;;;;15.00;99.90;;;;;;5093435;28;20333;-79
2022/11/09 02:04:00;;;;;;;;;;;15.00;99.90;;;;;;5093432;28;19962;-79
2022/11/09 02:06:27;;;;;;;;;;;15.00;99.90;;;;;;5093328;28;19912;-79
2022/11/09 02:08:55;;;;;;;;;;;15.00;99.90;;;;;;5093590;28;19915;-79
2022/11/09 02:11:21;;;;;;;;;;;15.00;99.90;;;;;;5093529;28;19912;-79
2022/11/09 02:13:50;;;;;;;;;;;14.90;99.90;;;;;;5094015;28;19908;-79
2022/11/09 02:16:16;;;;;;;;;;;15.00;99.90;;;;;;5092637;28;19966;-79
2022/11/09 02:18:47;;;;;;;;;;;14.90;99.90;;;;;;5093987;28;20279;-79
2022/11/09 02:21:13;;;;;;;;;;;14.90;99.90;;;;;;5093534;28;19908;-79
2022/11/09 02:23:38;;;;;;;;;;;14.90;99.90;;;;;;5093546;28;19908;-79
2022/11/09 02:26:06;;;;;;;;;;;14.80;99.90;;;;;;5093188;28;19927;-79
2022/11/09 02:28:33;;;;;;;;;;;14.80;99.90;;;;;;5093247;28;19908;-79
2022/11/09 02:30:59;;;;;;;;;;;14.80;99.90;;;;;;5091787;28;19909;-80
2022/11/09 02:33:25;;;;;;;;;;;14.80;99.90;;;;;;5093500;28;20435;-79
2022/11/09 02:35:50;;;;;;;;;;;14.70;99.90;;;;;;5093386;28;19947;-79
2022/11/09 02:38:16;;;;;;;;;;;14.70;99.90;;;;;;5093684;28;19915;-79
2022/11/09 02:40:42;;;;;;;;;;;14.70;99.90;;;;;;5093545;28;19908;-79
2022/11/09 02:43:09;;;;;;;;;;;14.70;99.90;;;;;;5093710;28;19912;-80
2022/11/09 02:45:35;;;;;;;;;;;14.70;99.90;;;;;;5093583;28;19908;-80
2022/11/09 02:48:00;;;;;;;;;;;14.70;99.90;;;;;;5093326;28;19912;-80
2022/11/09 02:50:26;;;;;;;;;;;14.70;99.90;;;;;;5093477;28;19915;-79
2022/11/09 02:52:51;;;;;;;;;;;14.70;99.90;;;;;;5093930;28;20279;-80
2022/11/09 02:55:17;;;;;;;;;;;14.70;99.90;;;;;;5093841;28;20328;-80
2022/11/09 02:57:42;;;;;;;;;;;14.60;99.90;;;;;;5093655;28;19912;-79
2022/11/09 03:00:08;;;;;;;;;;;14.60;99.90;;;;;;5093798;28;19977;-79
2022/11/09 03:02:34;;;;;;;;;;;14.60;99.90;;;;;;5093392;28;19931;-80
2022/11/09 03:04:59;;;;;;;;;;;14.60;99.90;;;;;;5093618;28;19947;-79
2022/11/09 03:07:25;;;;;;;;;;;14.70;99.90;;;;;;5093189;28;19919;-79
2022/11/09 03:09:52;;;;;;;;;;;14.70;99.90;;;;;;5093754;28;19908;-79
2022/11/09 03:12:30;;;;;;;;;;;14.70;99.90;;;;;;5094217;28;20298;-79
2022/11/09 03:14:56;;;;;;;;;;;14.80;99.90;;;;;;5094224;28;20413;-79
2022/11/09 03:17:21;;;;;;;;;;;14.80;99.90;;;;;;5093542;28;19908;-79
2022/11/09 03:19:47;;;;;;;;;;;14.90;99.90;;;;;;5093634;28;19915;-79
2022/11/09 03:22:13;;;;;;;;;;;14.90;99.90;;;;;;5093845;28;19961;-80
2022/11/09 03:24:38;;;;;;;;;;;15.00;99.90;;;;;;5093828;28;19959;-80
2022/11/09 03:27:04;;;;;;;;;;;15.00;99.90;;;;;;5092246;28;19923;-80
2022/11/09 03:29:29;;;;;;;;;;;15.10;99.90;;;;;;5094671;28;20414;-79
2022/11/09 03:31:55;;;;;;;;;;;15.10;99.90;;;;;;5093572;28;19914;-80
2022/11/09 03:34:20;;;;;;;;;;;15.10;99.90;;;;;;5093944;28;19944;-80
2022/11/09 03:36:45;;;;;;;;;;;15.10;99.90;;;;;;5092996;28;19916;-79
2022/11/09 03:39:11;;;;;;;;;;;15.20;99.90;;;;;;5093413;28;19908;-80
2022/11/09 03:41:36;;;;;;;;;;;15.20;99.90;;;;;;5093254;28;20379;-81
2022/11/09 03:44:02;;;;;;;;;;;15.20;99.90;;;;;;5094778;28;19912;-80
2022/11/09 03:46:27;;;;;;;;;;;15.20;99.90;;;;;;5096893;28;19918;-79
2022/11/09 03:48:53;;;;;;;;;;;15.20;99.90;;;;;;5096317;28;19916;-79
2022/11/09 03:51:18;;;;;;;;;;;15.20;99.90;;;;;;5097334;28;19933;-79
2022/11/09 03:53:44;;;;;;;;;;;15.20;99.90;;;;;;5098157;28;20482;-80
2022/11/09 03:56:09;;;;;;;;;;;15.20;99.90;;;;;;5098239;28;20049;-80
2022/11/09 03:58:34;;;;;;;;;;;15.20;99.90;;;;;;5098116;28;19908;-79
2022/11/09 04:01:00;;;;;;;;;;;15.20;99.90;;;;;;5097741;28;19946;-79
2022/11/09 04:03:25;;;;;;;;;;;15.20;99.90;;;;;;5097577;28;20299;-80
2022/11/09 04:05:51;;;;;;;;;;;15.20;99.90;;;;;;5097476;28;19908;-79
2022/11/09 04:08:16;;;;;;;;;;;15.30;99.90;;;;;;5095793;28;20360;-78
2022/11/09 04:10:42;;;;;;;;;;;15.30;99.90;;;;;;5095620;28;20276;-79
2022/11/09 04:13:07;;;;;;;;;;;15.30;99.90;;;;;;5096240;28;19908;-79
2022/11/09 04:15:33;;;;;;;;;;;15.40;99.90;;;;;;5095918;28;19909;-79
2022/11/09 04:17:59;;;;;;;;;;;15.40;99.90;;;;;;5096424;28;20470;-79
2022/11/09 04:20:25;;;;;;;;;;;15.40;99.90;;;;;;5097472;28;20303;-80
2022/11/09 04:22:54;;;;;;;;;;;15.40;99.90;;;;;;5096353;28;19908;-79
2022/11/09 04:25:20;;;;;;;;;;;15.40;99.90;;;;;;5096528;28;19914;-80
2022/11/09 04:27:45;;;;;;;;;;;15.40;99.90;;;;;;5096473;28;20011;-80
2022/11/09 04:30:11;;;;;;;;;;;15.40;99.90;;;;;;5096617;28;19912;-79
2022/11/09 04:32:36;;;;;;;;;;;15.40;99.90;;;;;;5096532;28;19959;-79
2022/11/09 04:35:02;;;;;;;;;;;15.40;99.90;;;;;;5096957;28;19908;-79
2022/11/09 04:37:28;;;;;;;;;;;15.40;99.90;;;;;;5095861;28;19962;-79
2022/11/09 04:39:53;;;;;;;;;;;15.40;99.90;;;;;;5094926;28;19919;-79
2022/11/09 04:42:18;;;;;;;;;;;15.40;99.90;;;;;;5094619;28;19915;-79
2022/11/09 04:44:44;;;;;;;;;;;15.40;99.90;;;;;;5097591;28;19909;-79
2022/11/09 04:47:09;;;;;;;;;;;15.40;99.90;;;;;;5096429;28;20301;-79
2022/11/09 04:49:35;;;;;;;;;;;15.40;99.90;;;;;;5096925;28;19931;-79
2022/11/09 04:52:00;;;;;;;;;;;15.40;99.90;;;;;;5096570;28;19961;-79
2022/11/09 04:54:26;;;;;;;;;;;15.40;99.90;;;;;;5097499;28;19908;-79
2022/11/09 04:56:51;;;;;;;;;;;15.40;99.90;;;;;;5096688;28;20264;-79
2022/11/09 04:59:17;;;;;;;;;;;15.40;99.90;;;;;;5097033;28;19931;-80
2022/11/09 05:01:42;;;;;;;;;;;15.40;99.90;;;;;;5097303;28;19908;-79
2022/11/09 05:04:07;;;;;;;;;;;15.40;99.90;;;;;;5095917;28;19908;-80
2022/11/09 05:06:33;;;;;;;;;;;15.40;99.90;;;;;;5095733;28;19916;-80
2022/11/09 05:09:02;;;;;;;;;;;15.30;99.90;;;;;;5096581;28;20294;-79
2022/11/09 05:11:28;;;;;;;;;;;15.30;99.90;;;;;;5095596;28;19908;-79
2022/11/09 05:13:53;;;;;;;;;;;15.30;99.90;;;;;;5095643;28;19923;-80
2022/11/09 05:16:19;;;;;;;;;;;15.30;99.90;;;;;;5095324;28;20343;-79
2022/11/09 05:18:45;;;;;;;;;;;15.40;99.90;;;;;;5096195;28;20303;-81
2022/11/09 05:21:11;;;;;;;;;;;15.40;99.90;;;;;;5095621;28;20065;-78
2022/11/09 05:26:20;;;;;;;;;;;15.50;99.90;;;;;;5095333;28;20394;-78
2022/11/09 05:28:46;;;;;;;;;;;15.60;99.90;;;;;;5095343;28;19908;-78
2022/11/09 05:31:11;;;;;;;;;;;15.60;99.90;;;;;;5095654;28;19908;-78
2022/11/09 05:33:37;;;;;;;;;;;15.70;99.90;;;;;;5095781;28;19915;-78
2022/11/09 05:36:02;;;;;;;;;;;15.70;99.90;;;;;;5094315;28;19920;-78
2022/11/09 05:38:28;;;;;;;;;;;15.80;99.90;;;;;;5096038;28;19915;-78
2022/11/09 05:40:53;;;;;;;;;;;15.80;99.90;;;;;;5095497;28;19912;-80
2022/11/09 05:43:19;;;;;;;;;;;15.80;99.90;;;;;;5095120;28;19956;-79
2022/11/09 05:45:45;;;;;;;;;;;15.60;99.90;;;;;;5095442;28;19908;-78
2022/11/09 05:48:14;;;;;;;;;;;15.50;99.90;;;;;;5095030;28;20473;-78
2022/11/09 05:50:41;;;;;;;;;;;15.20;99.90;;;;;;5095120;28;19908;-79
2022/11/09 05:53:07;;;;;;;;;;;15.00;99.90;;;;;;5095122;28;19908;-78
2022/11/09 05:55:32;;;;;;;;;;;14.80;99.90;;;;;;5094583;28;19908;-79
2022/11/09 05:57:58;;;;;;;;;;;14.60;99.90;;;;;;5094487;28;19998;-80
2022/11/09 06:00:23;;;;;;;;;;;14.50;99.90;;;;;;5094096;28;20286;-81
2022/11/09 06:02:49;;;;;;;;;;;14.30;99.90;;;;;;5094288;28;19954;-81
2022/11/09 06:05:15;;;;;;;;;;;14.00;99.90;;;;;;5094238;28;19909;-81
2022/11/09 06:07:40;;;;;;;;;;;13.80;99.90;;;;;;5093397;28;19958;-82
2022/11/09 06:10:06;;;;;;;;;;;13.70;99.90;;;;;;5092634;28;20384;-81
2022/11/09 06:12:32;;;;;;;;;;;13.60;99.90;;;;;;5093116;28;19915;-81
2022/11/09 06:14:57;;;;;;;;;;;13.60;99.90;;;;;;5092896;28;19957;-81
2022/11/09 06:17:23;;;;;;;;;;;13.60;99.90;;;;;;5093940;28;19912;-83
2022/11/09 06:19:48;;;;;;;;;;;13.60;99.90;;;;;;5093826;28;19908;-83
2022/11/09 06:22:14;;;;;;;;;;;13.50;99.90;;;;;;5093489;28;20541;-82
2022/11/09 06:24:39;;;;;;;;;;;13.40;99.90;;;;;;5093700;28;19916;-83
2022/11/09 06:27:05;;;;;;;;;;;13.30;99.90;;;;;;5093361;28;19912;-82
2022/11/09 06:29:30;;;;;;;;;;;13.20;99.90;;;;;;5093766;28;20398;-83
2022/11/09 06:31:56;;;;;;;;;;;13.10;99.90;;;;;;5093537;28;20371;-82
2022/11/09 06:34:21;;;;;;;;;;;13.00;99.90;;;;;;5093630;28;19982;-82
2022/11/09 06:36:47;;;;;;;;;;;13.00;99.90;;;;;;5092958;28;19917;-82
2022/11/09 06:39:12;;;;;;;;;;;12.90;99.90;;;;;;5093719;28;19908;-82
2022/11/09 06:41:37;;;;;;;;;;;12.90;99.90;;;;;;5093455;28;19930;-82
2022/11/09 06:44:04;;;;;;;;;;;12.90;99.90;;;;;;5093305;28;19919;-82
2022/11/09 06:46:30;;;;;;;;;;;12.90;99.90;;;;;;5093131;28;19922;-81
2022/11/09 06:48:55;;;;;;;;;;;13.00;99.90;;;;;;5090175;28;19913;-82
2022/11/09 06:51:21;;;;;;;;;;;12.90;99.90;;;;;;5092389;28;19915;-82
2022/11/09 06:53:46;;;;;;;;;;;12.90;99.90;;;;;;5082753;28;19912;-82
2022/11/09 06:56:12;;;;;;;;;;;13.00;99.90;;;;;;5076251;28;19919;-82
2022/11/09 06:58:37;;;;;;;;;;;13.10;99.90;;;;;;5092325;28;19908;-81
2022/11/09 07:01:18;;;;;;;;;;;13.20;99.90;;;;;;5092006;28;19937;-81
2022/11/09 07:03:43;;;;;;;;;;;13.20;99.90;;;;;;5093529;28;20359;-81
2022/11/09 07:06:09;;;;;;;;;;;13.30;99.90;;;;;;5092849;28;19916;-80
2022/11/09 07:08:35;;;;;;;;;;;13.30;99.90;;;;;;5093199;28;20332;-80
2022/11/09 07:11:03;;;;;;;;;;;13.30;99.90;;;;;;5094196;28;19912;-81
2022/11/09 07:13:29;;;;;;;;;;;13.30;99.90;;;;;;5093685;28;19908;-80
2022/11/09 07:15:54;;;;;;;;;;;13.30;99.90;;;;;;5093416;28;20030;-80
2022/11/09 07:18:20;;;;;;;;;;;13.20;99.90;;;;;;5093344;28;19908;-80
2022/11/09 07:20:45;;;;;;;;;;;13.30;99.90;;;;;;5097597;28;19943;-81
2022/11/09 07:23:11;;;;;;;;;;;13.30;99.90;;;;;;5095477;28;20375;-80
2022/11/09 07:25:36;;;;;;;;;;;13.30;99.90;;;;;;5096970;28;19908;-81
2022/11/09 07:28:03;;;;;;;;;;;13.30;99.90;;;;;;5091932;28;20486;-81
2022/11/09 07:30:29;;;;;;;;;;;13.30;99.90;;;;;;5098602;28;20052;-81
2022/11/09 07:32:56;;;;;;;;;;;13.30;99.90;;;;;;5104518;28;19974;-80
2022/11/09 07:35:22;;;;;;;;;;;13.30;99.90;;;;;;5092619;28;19912;-81
2022/11/09 07:37:47;;;;;;;;;;;13.30;99.90;;;;;;5115114;28;19974;-83
2022/11/09 07:40:13;;;;;;;;;;;13.20;99.90;;;;;;5125391;28;19937;-82
2022/11/09 07:42:38;;;;;;;;;;;13.20;99.90;;;;;;5127637;28;19946;-84
2022/11/09 07:45:04;;;;;;;;;;;13.20;99.90;;;;;;5125289;28;19912;-82
2022/11/09 07:47:29;;;;;;;;;;;13.10;99.90;;;;;;5110014;28;20058;-81
2022/11/09 07:49:55;;;;;;;;;;;13.10;99.90;;;;;;5102251;28;19912;-81
2022/11/09 07:52:20;;;;;;;;;;;13.20;99.90;;;;;;5101800;28;19908;-82
2022/11/09 07:54:46;;;;;;;;;;;13.20;99.90;;;;;;5102378;28;19908;-81
2022/11/09 07:57:11;;;;;;;;;;;13.30;99.90;;;;;;5102411;28;19908;-80
2022/11/09 07:59:37;;;;;;;;;;;13.30;99.90;;;;;;5103030;28;19908;-81
2022/11/09 08:02:02;;;;;;;;;;;13.30;99.90;;;;;;5100241;28;19908;-81
2022/11/09 08:04:28;;;;;;;;;;;13.40;99.90;;;;;;5098810;28;19965;-82
2022/11/09 08:06:53;;;;;;;;;;;13.40;99.90;;;;;;5100158;28;20011;-80
2022/11/09 08:09:19;;;;;;;;;;;13.50;99.90;;;;;;5100023;28;20374;-80
2022/11/09 08:11:45;;;;;;;;;;;13.60;99.90;;;;;;5099650;28;19908;-82
2022/11/09 08:14:10;;;;;;;;;;;13.70;99.90;;;;;;5097835;28;20313;-82
2022/11/09 08:16:36;;;;;;;;;;;13.70;99.90;;;;;;5097281;28;19908;-80
2022/11/09 08:19:01;;;;;;;;;;;13.80;99.90;;;;;;5100268;28;19912;-83
2022/11/09 08:21:27;;;;;;;;;;;13.80;99.90;;;;;;5099458;28;19912;-84
2022/11/09 08:23:52;;;;;;;;;;;13.80;99.90;;;;;;5099916;28;19908;-81
2022/11/09 08:26:17;;;;;;;;;;;14.00;99.90;;;;;;5099308;28;19986;-80
2022/11/09 08:28:43;;;;;;;;;;;14.00;99.90;;;;;;5101367;28;19912;-81
2022/11/09 08:31:08;;;;;;;;;;;14.10;99.90;;;;;;5101346;28;19908;-82
2022/11/09 08:33:36;;;;;;;;;;;14.20;99.90;;;;;;5099974;28;19961;-81
2022/11/09 08:36:07;;;;;;;;;;;14.30;99.90;;;;;;5099056;28;19982;-81
2022/11/09 08:38:32;;;;;;;;;;;14.40;99.90;;;;;;5099849;28;19908;-81
2022/11/09 08:40:58;;;;;;;;;;;14.50;99.90;;;;;;5098034;28;19976;-82
2022/11/09 08:43:23;;;;;;;;;;;14.60;99.90;;;;;;5098875;28;19912;-81
2022/11/09 08:45:49;;;;;;;;;;;14.70;99.90;;;;;;5100082;28;19908;-82
2022/11/09 08:48:14;;;;;;;;;;;14.70;99.90;;;;;;5098845;28;19994;-81
2022/11/09 08:50:40;;;;;;;;;;;14.80;99.90;;;;;;5099178;28;20286;-82
2022/11/09 08:53:06;;;;;;;;;;;14.80;99.90;;;;;;5098007;28;19915;-80
2022/11/09 08:55:32;;;;;;;;;;;14.80;99.90;;;;;;5098359;28;19977;-82
2022/11/09 08:57:58;;;;;;;;;;;14.90;99.90;;;;;;5098575;28;19908;-82
2022/11/09 09:00:24;;;;;;;;;;;14.90;99.90;;;;;;5100403;28;19919;-82
2022/11/09 09:02:50;;;;;;;;;;;14.90;99.90;;;;;;5105947;28;20302;-82
2022/11/09 09:05:16;;;;;;;;;;;15.00;99.90;;;;;;5106926;28;20240;-82
2022/11/09 09:07:41;;;;;;;;;;;15.10;99.90;;;;;;5105687;28;19975;-82
2022/11/09 09:10:07;;;;;;;;;;;15.10;99.90;;;;;;5105751;28;19915;-81
2022/11/09 09:12:32;;;;;;;;;;;15.10;99.90;;;;;;5106570;28;19934;-82
2022/11/09 09:14:58;;;;;;;;;;;15.10;99.90;;;;;;5105650;28;19908;-82
2022/11/09 09:17:23;;;;;;;;;;;15.10;99.90;;;;;;5105761;28;20330;-82
2022/11/09 09:19:49;;;;;;;;;;;15.20;99.90;;;;;;5105452;28;20371;-81
2022/11/09 09:22:14;;;;;;;;;;;15.20;99.90;;;;;;5105385;28;19908;-83
2022/11/09 09:24:40;;;;;;;;;;;15.20;99.90;;;;;;5104161;28;19908;-82
2022/11/09 09:27:06;;;;;;;;;;;15.30;99.90;;;;;;5101828;28;20286;-81
2022/11/09 09:29:31;;;;;;;;;;;15.40;99.90;;;;;;5103432;28;19908;-81
2022/11/09 09:31:57;;;;;;;;;;;15.40;99.90;;;;;;5103250;28;19912;-82
2022/11/09 09:34:22;;;;;;;;;;;15.50;99.90;;;;;;5107312;28;19988;-80
2022/11/09 09:36:47;;;;;;;;;;;15.60;99.90;;;;;;5111610;28;19945;-81
2022/11/09 09:39:13;;;;;;;;;;;15.70;99.90;;;;;;5110333;28;19922;-82
2022/11/09 09:41:40;;;;;;;;;;;15.80;99.90;;;;;;5105547;28;19912;-82
2022/11/09 09:44:26;;;;;;;;;;;15.90;99.90;;;;;;5099015;28;19908;-80
2022/11/09 09:46:57;;;;;;;;;;;16.00;99.90;;;;;;5098450;28;19912;-82
2022/11/09 09:49:27;;;;;;;;;;;16.20;99.90;;;;;;5098220;28;19930;-82
2022/11/09 09:51:56;;;;;;;;;;;16.30;99.90;;;;;;5098129;28;20299;-81
2022/11/09 09:54:38;;;;;;;;;;;16.40;99.90;;;;;;5095874;28;20299;-81
2022/11/09 09:57:08;;;;;;;;;;;16.50;99.90;;;;;;5097650;28;19943;-81
2022/11/09 09:59:41;;;;;;;;;;;16.50;99.90;;;;;;5098278;28;19954;-82
2022/11/09 10:02:27;;;;;;;;;;;16.60;99.90;;;;;;5098397;28;20322;-81
2022/11/09 10:04:55;;;;;;;;;;;16.70;99.90;;;;;;5098029;28;19919;-84
2022/11/09 10:07:24;;;;;;;;;;;16.70;99.90;;;;;;5096596;28;19912;-81
2022/11/09 10:10:14;;;;;;;;;;;16.60;99.90;;;;;;5097198;28;19957;-84
2022/11/09 10:12:39;;;;;;;;;;;16.50;99.90;;;;;;5095295;28;19909;-86
2022/11/09 10:15:08;;;;;;;;;;;16.60;99.90;;;;;;5103067;28;20320;-83
2022/11/09 10:17:36;;;;;;;;;;;16.60;99.90;;;;;;5115714;28;19927;-84
2022/11/09 10:20:09;;;;;;;;;;;16.50;99.90;;;;;;5115860;28;19908;-84
2022/11/09 10:22:47;;;;;;;;;;;16.80;99.90;;;;;;5115863;28;19907;-86
2022/11/09 10:25:38;;;;;;;;;;;16.90;99.90;;;;;;5115416;28;19950;-83
2022/11/09 10:28:09;;;;;;;;;;;17.10;99.90;;;;;;5090002;28;20008;-84
2022/11/09 10:30:34;;;;;;;;;;;17.30;99.90;;;;;;5095878;28;19915;-86
2022/11/09 10:33:12;;;;;;;;;;;17.30;99.90;;;;;;5095398;28;20283;-84
2022/11/09 10:35:51;;;;;;;;;;;17.20;99.90;;;;;;5094670;28;19942;-85
2022/11/09 10:38:22;;;;;;;;;;;17.40;99.90;;;;;;5095152;28;19908;-86
2022/11/09 10:40:55;;;;;;;;;;;17.40;99.90;;;;;;5097802;28;19915;-86
2022/11/09 10:43:22;;;;;;;;;;;17.40;99.90;;;;;;5096231;28;20283;-86
2022/11/09 10:45:56;;;;;;;;;;;17.40;99.90;;;;;;5095278;28;19957;-87
2022/11/09 10:48:29;;;;;;;;;;;17.40;99.90;;;;;;5096252;28;20011;-84
2022/11/09 10:50:54;;;;;;;;;;;17.40;99.90;;;;;;5096852;28;20334;-86
2022/11/09 10:53:21;;;;;;;;;;;17.50;99.90;;;;;;5098238;28;19912;-83
2022/11/09 10:55:53;;;;;;;;;;;17.60;99.90;;;;;;5100412;28;19908;-85
2022/11/09 10:58:33;;;;;;;;;;;17.90;99.90;;;;;;5103006;28;19958;-85
2022/11/09 11:01:03;;;;;;;;;;;18.70;99.90;;;;;;5124370;28;19914;-86
2022/11/09 11:03:31;;;;;;;;;;;19.50;99.90;;;;;;5122815;28;19918;-84
2022/11/09 11:06:13;;;;;;;;;;;19.80;99.90;;;;;;5118831;28;19907;-84
2022/11/09 11:08:40;;;;;;;;;;;20.20;99.90;;;;;;5119692;28;19918;-84
2022/11/09 11:11:26;;;;;;;;;;;20.60;99.90;;;;;;5119982;28;19912;-86
2022/11/09 11:14:04;;;;;;;;;;;20.80;99.90;;;;;;5122990;28;20479;-85
2022/11/09 11:16:33;;;;;;;;;;;20.90;99.90;;;;;;5119413;28;20375;-81
2022/11/09 11:18:59;;;;;;;;;;;21.10;99.90;;;;;;5120409;28;19908;-85
2022/11/09 11:21:25;;;;;;;;;;;21.70;99.90;;;;;;5120719;28;19923;-84
2022/11/09 11:24:03;;;;;;;;;;;22.70;99.90;;;;;;5120182;28;19908;-84
2022/11/09 11:26:45;;;;;;;;;;;23.10;99.90;;;;;;5117353;28;19915;-82
2022/11/09 11:29:25;;;;;;;;;;;23.20;99.90;;;;;;5118521;28;19953;-83
2022/11/09 11:31:50;;;;;;;;;;;22.90;99.90;;;;;;5117288;28;19935;-84
2022/11/09 11:34:16;;;;;;;;;;;23.00;99.90;;;;;;5115995;28;19908;-85
2022/11/09 11:36:58;;;;;;;;;;;22.30;99.90;;;;;;5118309;28;19955;-83
2022/11/09 11:39:32;;;;;;;;;;;22.90;99.90;;;;;;5120948;28;19915;-82
2022/11/09 11:42:27;;;;;;;;;;;22.40;99.90;;;;;;5123271;28;19970;-83
2022/11/09 11:45:03;;;;;;;;;;;22.40;99.90;;;;;;5110842;28;19914;-83
2022/11/09 11:47:40;;;;;;;;;;;22.50;99.60;;;;;;5120234;28;19926;-83
2022/11/09 11:50:25;;;;;;;;;;;22.50;99.90;;;;;;5121934;28;19995;-82
2022/11/09 11:52:58;;;;;;;;;;;22.80;98.80;;;;;;5108236;28;19908;-79
2022/11/09 11:55:29;;;;;;;;;;;22.80;98.50;;;;;;5120652;28;19931;-79
2022/11/09 11:57:54;;;;;;;;;;;22.40;96.90;;;;;;5121356;28;19911;-80
2022/11/09 12:00:20;;;;;;;;;;;21.80;98.70;;;;;;5122029;28;19933;-78
2022/11/09 12:03:04;;;;;;;;;;;21.60;99.50;;;;;;5121540;28;19915;-78
2022/11/09 12:05:37;;;;;;;;;;;21.50;98.90;;;;;;5119360;28;19908;-78
2022/11/09 12:08:41;;;;;;;;;;;21.40;99.90;;;;;;5121116;28;19912;-78
2022/11/09 12:11:24;;;;;;;;;;;22.00;99.90;;;;;;5077675;28;19908;-78
2022/11/09 12:13:58;;;;;;;;;;;22.30;98.30;;;;;;5074165;28;20455;-77
2022/11/09 12:16:33;;;;;;;;;;;21.50;97.60;;;;;;5100065;28;19914;-78
2022/11/09 12:19:17;;;;;;;;;;;21.10;98.70;;;;;;5116539;28;19947;-78
2022/11/09 12:22:00;;;;;;;;;;;20.70;98.50;;;;;;5116005;28;19911;-79
2022/11/09 12:24:29;;;;;;;;;;;20.00;98.90;;;;;;5116693;28;19995;-79
2022/11/09 12:26:55;;;;;;;;;;;19.40;99.90;;;;;;5116141;28;19912;-80
2022/11/09 12:29:22;;;;;;;;;;;19.10;99.90;;;;;;5116688;27;19908;-79
2022/11/09 12:31:56;;;;;;;;;;;19.00;99.90;;;;;;5115891;28;19908;-79
2022/11/09 12:34:27;;;;;;;;;;;19.00;99.90;;;;;;5116839;28;19915;-79
2022/11/09 12:36:58;;;;;;;;;;;19.20;99.90;;;;;;5114717;28;19927;-78
2022/11/09 12:39:28;;;;;;;;;;;19.10;99.90;;;;;;5116557;28;20308;-79
2022/11/09 12:41:57;;;;;;;;;;;19.00;99.90;;;;;;5115831;28;19943;-79
2022/11/09 12:44:32;;;;;;;;;;;19.00;99.90;;;;;;5114935;28;19908;-79
2022/11/09 12:47:08;;;;;;;;;;;18.90;99.90;;;;;;5116202;28;19918;-79
2022/11/09 12:49:35;;;;;;;;;;;18.60;99.90;;;;;;5115665;28;19907;-79
2022/11/09 12:52:02;;;;;;;;;;;18.50;99.90;;;;;;5115751;28;20277;-79
2022/11/09 12:54:28;;;;;;;;;;;18.40;99.90;;;;;;5115775;28;20387;-79
2022/11/09 12:56:55;;;;;;;;;;;18.40;99.90;;;;;;5115224;28;19950;-79
2022/11/09 12:59:33;;;;;;;;;;;18.20;99.90;;;;;;5113889;28;20433;-79
2022/11/09 13:02:00;;;;;;;;;;;18.00;99.90;;;;;;5115703;28;19908;-79
2022/11/09 13:04:26;;;;;;;;;;;17.90;99.90;;;;;;5116091;28;19912;-79
2022/11/09 13:07:10;;;;;;;;;;;17.80;99.90;;;;;;5115614;28;19919;-79
2022/11/09 13:09:35;;;;;;;;;;;17.80;99.90;;;;;;5115248;28;19908;-79
2022/11/09 13:12:17;;;;;;;;;;;17.90;99.90;;;;;;5115627;28;20286;-78
2022/11/09 13:14:43;;;;;;;;;;;17.90;99.90;;;;;;5115381;28;20382;-78
2022/11/09 13:17:23;;;;;;;;;;;17.60;99.90;;;;;;5114037;28;19908;-79
2022/11/09 13:19:53;;;;;;;;;;;17.80;99.90;;;;;;5114230;28;20264;-80
2022/11/09 13:22:22;;;;;;;;;;;17.80;99.90;;;;;;5115035;28;19908;-79
2022/11/09 13:24:50;;;;;;;;;;;17.90;99.90;;;;;;5113950;28;20527;-79
2022/11/09 13:27:34;;;;;;;;;;;17.70;99.90;;;;;;5114873;28;20379;-78
2022/11/09 13:30:00;;;;;;;;;;;17.50;99.90;;;;;;5114848;28;19908;-80
2022/11/09 13:32:27;;;;;;;;;;;17.40;99.90;;;;;;5114865;28;19915;-79
2022/11/09 13:34:53;;;;;;;;;;;17.40;99.90;;;;;;5113499;28;19908;-79
2022/11/09 13:37:35;;;;;;;;;;;17.20;99.90;;;;;;5113388;28;19922;-79
2022/11/09 13:40:20;;;;;;;;;;;17.20;99.90;;;;;;5114924;28;19907;-79
2022/11/09 13:42:58;;;;;;;;;;;17.30;99.90;;;;;;5114345;28;19908;-79
2022/11/09 13:45:25;;;;;;;;;;;17.30;99.90;;;;;;5114475;28;19919;-79
2022/11/09 13:47:51;;;;;;;;;;;17.40;99.90;;;;;;5114252;28;20287;-79
2022/11/09 13:50:18;;;;;;;;;;;17.40;99.90;;;;;;5114542;28;19907;-79
2022/11/09 13:52:48;;;;;;;;;;;17.50;99.90;;;;;;5114181;28;19912;-78
2022/11/09 13:55:21;;;;;;;;;;;17.50;99.90;;;;;;5114447;28;19919;-78
2022/11/09 13:57:47;;;;;;;;;;;17.30;99.90;;;;;;5114331;28;19961;-79
2022/11/09 14:00:22;;;;;;;;;;;17.30;99.90;;;;;;5114219;28;19916;-79
2022/11/09 14:02:58;;;;;;;;;;;17.30;99.90;;;;;;5114165;28;20334;-79
2022/11/09 14:05:24;;;;;;;;;;;17.40;99.90;;;;;;5114097;28;19919;-79
2022/11/09 14:07:51;;;;;;;;;;;17.40;99.90;;;;;;5114065;28;19916;-79
2022/11/09 14:10:24;;;;;;;;;;;17.30;99.90;;;;;;5114189;28;19908;-78
2022/11/09 14:13:02;;;;;;;;;;;17.30;99.90;;;;;;5114055;28;19911;-78
2022/11/09 14:15:46;;;;;;;;;;;17.20;99.90;;;;;;5113995;28;19978;-80
2022/11/09 14:18:20;;;;;;;;;;;17.20;99.90;;;;;;5114272;28;20345;-79
2022/11/09 14:20:48;;;;;;;;;;;17.10;99.90;;;;;;5114346;28;19908;-79
2022/11/09 14:23:16;;;;;;;;;;;17.10;99.90;;;;;;5114579;28;19908;-79
2022/11/09 14:25:41;;;;;;;;;;;17.20;99.90;;;;;;5114148;28;19907;-78